Time;durP1;ratioP1;P1;durP2;ratioP2;P2;SDS_P1;SDS_P2;PMS_P1;PMS_P2;Temp;Humidity;BMP_temperature;BMP_pressure;BME280_temperature;BME280_humidity;BME280_pressure;Samples;Min_cycle;Max_cycle;Signal;HPM_P1;HPM_P2
2022/05/29 00:01:57;;;;;;;1.40;1.30;;;20.60;52.40;;;;;;5094336;28;20181;-72
2022/05/29 00:04:23;;;;;;;1.60;1.50;;;20.60;52.40;;;;;;5093929;28;20204;-71
2022/05/29 00:06:53;;;;;;;1.25;1.15;;;20.60;52.50;;;;;;5093703;28;20209;-71
2022/05/29 00:09:36;;;;;;;1.35;1.25;;;20.60;52.60;;;;;;5077153;28;20200;-71
2022/05/29 00:12:06;;;;;;;1.67;1.38;;;20.60;52.50;;;;;;5093117;28;20168;-72
2022/05/29 00:14:33;;;;;;;1.58;1.30;;;20.60;52.50;;;;;;5072627;28;20196;-71
2022/05/29 00:16:58;;;;;;;1.35;1.25;;;20.60;52.60;;;;;;5055882;28;20307;-71
2022/05/29 00:19:25;;;;;;;2.22;1.20;;;20.60;52.60;;;;;;5056023;28;20184;-71
2022/05/29 00:21:51;;;;;;;1.42;1.33;;;20.70;52.60;;;;;;5056097;28;20585;-71
2022/05/29 00:24:17;;;;;;;1.98;1.75;;;20.60;52.60;;;;;;5073919;28;20244;-71
2022/05/29 00:26:43;;;;;;;2.50;1.55;;;20.60;52.50;;;;;;5072258;28;20201;-71
2022/05/29 00:29:09;;;;;;;1.92;1.50;;;20.60;52.50;;;;;;5072254;28;20185;-71
2022/05/29 00:31:35;;;;;;;1.73;1.63;;;20.60;52.50;;;;;;5072870;28;20186;-71
2022/05/29 00:34:02;;;;;;;1.55;1.30;;;20.60;52.50;;;;;;5072449;28;20182;-71
2022/05/29 00:36:37;;;;;;;1.80;1.70;;;20.60;52.40;;;;;;5072507;28;20208;-71
2022/05/29 00:39:03;;;;;;;1.58;1.48;;;20.60;52.50;;;;;;5040025;28;20185;-71
2022/05/29 00:41:36;;;;;;;1.40;1.30;;;20.60;52.50;;;;;;5056410;28;20194;-71
2022/05/29 00:44:14;;;;;;;1.73;1.38;;;20.60;52.50;;;;;;5055878;28;20218;-71
2022/05/29 00:47:18;;;;;;;1.50;1.40;;;20.60;52.70;;;;;;5072449;28;20261;-71
2022/05/29 00:49:48;;;;;;;1.92;1.40;;;20.60;52.70;;;;;;5072059;28;20193;-71
2022/05/29 00:52:13;;;;;;;1.88;1.48;;;20.60;52.70;;;;;;5073314;28;20277;-71
2022/05/29 00:54:54;;;;;;;1.48;1.38;;;20.60;52.70;;;;;;5054837;28;20239;-71
2022/05/29 00:57:28;;;;;;;1.60;1.50;;;20.60;52.50;;;;;;5076005;28;20216;-71
2022/05/29 01:00:00;;;;;;;1.40;1.30;;;20.60;52.50;;;;;;5076488;28;20231;-71
2022/05/29 01:02:26;;;;;;;1.85;1.42;;;20.60;52.50;;;;;;5076160;28;20190;-71
2022/05/29 01:04:52;;;;;;;1.10;1.00;;;20.60;52.60;;;;;;5076190;28;20237;-71
2022/05/29 01:07:21;;;;;;;1.50;1.40;;;20.60;52.60;;;;;;5077399;28;20284;-71
2022/05/29 01:09:49;;;;;;;1.33;1.23;;;20.60;52.70;;;;;;5076309;28;20182;-71
2022/05/29 01:12:46;;;;;;;1.40;1.30;;;20.60;52.70;;;;;;5076844;28;20185;-72
2022/05/29 01:15:11;;;;;;;2.00;1.30;;;20.60;52.70;;;;;;5076338;28;20197;-71
2022/05/29 01:18:14;;;;;;;1.20;1.10;;;20.60;52.80;;;;;;5059488;28;20205;-71
2022/05/29 01:21:22;;;;;;;1.60;1.50;;;20.60;53.30;;;;;;5075894;28;20227;-72
2022/05/29 01:24:22;;;;;;;1.30;1.15;;;20.60;52.50;;;;;;5075596;28;20231;-71
2022/05/29 01:27:14;;;;;;;1.33;1.15;;;20.50;52.70;;;;;;5075731;28;20201;-71
2022/05/29 01:30:08;;;;;;;1.42;1.33;;;20.60;52.80;;;;;;5077254;28;20170;-71
2022/05/29 01:33:05;;;;;;;1.95;1.60;;;20.60;52.70;;;;;;5059419;28;20185;-71
2022/05/29 01:35:47;;;;;;;1.38;1.27;;;20.50;52.60;;;;;;5075483;28;20657;-71
2022/05/29 01:38:22;;;;;;;1.30;1.20;;;20.50;52.70;;;;;;5075671;28;20189;-71
2022/05/29 01:41:08;;;;;;;1.58;1.48;;;20.50;52.70;;;;;;5075798;28;20307;-71
2022/05/29 01:43:43;;;;;;;2.03;1.30;;;20.50;52.80;;;;;;5075147;28;20304;-71
2022/05/29 01:46:18;;;;;;;1.40;1.30;;;20.50;52.70;;;;;;5076944;28;20201;-71
2022/05/29 01:49:25;;;;;;;1.65;1.20;;;20.50;52.60;;;;;;5075825;28;20185;-71
2022/05/29 01:52:16;;;;;;;1.40;1.30;;;20.50;52.60;;;;;;5075614;28;20219;-71
2022/05/29 01:54:58;;;;;;;1.33;1.23;;;20.50;52.80;;;;;;5075341;28;20178;-71
2022/05/29 01:57:34;;;;;;;1.40;1.30;;;20.50;52.80;;;;;;5075328;28;20260;-71
2022/05/29 02:00:18;;;;;;;1.45;1.25;;;20.50;52.80;;;;;;5076392;28;20185;-71
2022/05/29 02:03:07;;;;;;;1.55;1.25;;;20.50;52.70;;;;;;5075194;28;20170;-71
2022/05/29 02:05:51;;;;;;;1.45;1.35;;;20.50;52.60;;;;;;5075966;28;20613;-71
2022/05/29 02:08:36;;;;;;;1.30;1.20;;;20.50;52.80;;;;;;5075944;28;20568;-71
2022/05/29 02:11:12;;;;;;;1.30;1.20;;;20.50;52.80;;;;;;5059003;28;20178;-71
2022/05/29 02:13:52;;;;;;;1.30;1.20;;;20.50;52.80;;;;;;5058945;28;20193;-71
2022/05/29 02:16:53;;;;;;;1.60;1.40;;;20.50;52.80;;;;;;5076299;28;20202;-71
2022/05/29 02:19:35;;;;;;;1.20;1.10;;;20.50;52.70;;;;;;5073895;28;20198;-71
2022/05/29 02:22:14;;;;;;;1.40;1.20;;;20.50;52.70;;;;;;5059006;28;20181;-71
2022/05/29 02:24:53;;;;;;;2.28;1.20;;;20.50;52.80;;;;;;5057967;28;20236;-71
2022/05/29 02:27:43;;;;;;;1.27;1.17;;;20.50;52.90;;;;;;5075208;28;20197;-71
2022/05/29 02:30:09;;;;;;;1.27;1.17;;;20.50;52.90;;;;;;5075306;28;20268;-71
2022/05/29 02:33:05;;;;;;;1.20;1.10;;;20.50;52.80;;;;;;5091768;28;20181;-71
2022/05/29 02:35:46;;;;;;;1.30;1.20;;;20.50;52.80;;;;;;5057965;28;20181;-71
2022/05/29 02:38:48;;;;;;;1.10;1.08;;;20.50;52.70;;;;;;5074861;28;20235;-71
2022/05/29 02:41:29;;;;;;;1.00;1.00;;;20.50;52.80;;;;;;5057834;28;20239;-71
2022/05/29 02:44:15;;;;;;;1.30;1.20;;;20.50;52.90;;;;;;5075456;28;20205;-71
2022/05/29 02:47:17;;;;;;;1.35;1.17;;;20.50;52.90;;;;;;5074754;28;20298;-71
2022/05/29 02:50:02;;;;;;;2.10;1.20;;;20.50;52.80;;;;;;5046484;28;20198;-71
2022/05/29 02:52:29;;;;;;;1.00;1.00;;;20.40;52.70;;;;;;5074872;28;20178;-71
2022/05/29 02:54:56;;;;;;;1.30;1.20;;;20.50;52.80;;;;;;5075911;28;20184;-71
2022/05/29 02:57:22;;;;;;;1.48;1.20;;;20.40;52.80;;;;;;5074997;28;20209;-71
2022/05/29 02:59:58;;;;;;;1.10;0.98;;;20.50;52.90;;;;;;5092059;28;20281;-71
2022/05/29 03:03:09;;;;;;;1.17;1.08;;;20.50;52.90;;;;;;5076417;28;20174;-71
2022/05/29 03:06:12;;;;;;;1.67;1.30;;;20.50;52.90;;;;;;5074267;28;20231;-71
2022/05/29 03:09:02;;;;;;;1.13;1.00;;;20.40;52.80;;;;;;5074491;28;20204;-71
2022/05/29 03:11:39;;;;;;;1.42;1.10;;;20.50;52.90;;;;;;5091431;28;20174;-71
2022/05/29 03:14:20;;;;;;;1.20;1.10;;;20.40;52.90;;;;;;5090978;28;20185;-71
2022/05/29 03:17:13;;;;;;;0.85;0.85;;;20.50;53.00;;;;;;5074347;28;20228;-71
2022/05/29 03:20:13;;;;;;;1.13;1.05;;;20.40;52.80;;;;;;5074847;28;20260;-71
2022/05/29 03:23:03;;;;;;;1.02;1.00;;;20.40;52.80;;;;;;5075893;28;20170;-71
2022/05/29 03:25:48;;;;;;;1.10;1.10;;;20.40;52.90;;;;;;5073892;28;20214;-71
2022/05/29 03:28:30;;;;;;;1.08;1.05;;;20.40;52.90;;;;;;5074195;28;20189;-71
2022/05/29 03:30:59;;;;;;;1.52;1.42;;;20.40;53.00;;;;;;5074078;28;20273;-71
2022/05/29 03:33:26;;;;;;;1.10;1.00;;;20.40;53.50;;;;;;5057294;28;20257;-71
2022/05/29 03:35:52;;;;;;;1.27;1.15;;;20.50;53.00;;;;;;5074978;28;20204;-71
2022/05/29 03:38:18;;;;;;;1.50;1.40;;;20.40;52.80;;;;;;5094321;28;20241;-71
2022/05/29 03:40:46;;;;;;;1.35;1.20;;;20.40;52.80;;;;;;5093976;28;20284;-71
2022/05/29 03:43:12;;;;;;;1.80;1.30;;;20.40;52.80;;;;;;5077482;28;20176;-71
2022/05/29 03:45:38;;;;;;;1.85;1.33;;;20.40;52.80;;;;;;5093892;28;20262;-71
2022/05/29 03:48:05;;;;;;;1.25;1.15;;;20.40;52.80;;;;;;5076653;28;20181;-71
2022/05/29 03:50:34;;;;;;;1.30;1.20;;;20.40;52.80;;;;;;5076880;28;20191;-71
2022/05/29 03:53:01;;;;;;;1.00;0.90;;;20.40;52.90;;;;;;5076468;28;20185;-71
2022/05/29 03:55:27;;;;;;;1.10;0.98;;;20.40;52.90;;;;;;5076889;28;20188;-71
2022/05/29 03:57:53;;;;;;;1.00;1.00;;;20.40;53.00;;;;;;5076542;28;20188;-71
2022/05/29 04:00:22;;;;;;;0.95;0.95;;;20.40;53.00;;;;;;5093067;28;20208;-71
2022/05/29 04:02:49;;;;;;;1.67;1.40;;;20.40;53.00;;;;;;5076437;28;20287;-71
2022/05/29 04:05:22;;;;;;;1.33;1.00;;;20.40;53.00;;;;;;5078009;28;20687;-71
2022/05/29 04:13:24;;;;;;;1.40;1.30;;;20.40;53.00;;;;;;5114141;28;20306;-71
2022/05/29 04:15:50;;;;;;;1.15;1.05;;;20.40;52.90;;;;;;5096783;28;20278;-71
2022/05/29 04:18:19;;;;;;;1.48;1.33;;;20.40;52.90;;;;;;5114338;28;20275;-71
2022/05/29 04:20:45;;;;;;;1.77;1.40;;;20.40;52.90;;;;;;5096801;28;20191;-71
2022/05/29 04:23:12;;;;;;;1.30;1.20;;;20.40;53.00;;;;;;5097210;28;20262;-71
2022/05/29 04:25:38;;;;;;;1.13;1.02;;;20.40;53.00;;;;;;5097071;28;20212;-71
2022/05/29 04:28:07;;;;;;;1.40;1.10;;;20.40;53.00;;;;;;5097131;28;20184;-71
2022/05/29 04:30:33;;;;;;;0.90;0.90;;;20.40;53.00;;;;;;5096593;28;20180;-71
2022/05/29 04:32:59;;;;;;;1.10;1.00;;;20.40;53.10;;;;;;5114182;28;20180;-71
2022/05/29 04:35:39;;;;;;;1.10;1.00;;;20.40;53.00;;;;;;5096930;28;20191;-72
2022/05/29 04:38:06;;;;;;;1.40;1.10;;;20.40;53.10;;;;;;5096914;28;20210;-71
2022/05/29 04:40:32;;;;;;;1.20;1.10;;;20.40;53.10;;;;;;5096754;28;20562;-71
2022/05/29 04:42:59;;;;;;;1.10;1.00;;;20.40;53.10;;;;;;5096646;28;20188;-71
2022/05/29 04:45:25;;;;;;;1.17;1.17;;;20.40;53.10;;;;;;5096648;28;20215;-72
2022/05/29 04:47:50;;;;;;;1.13;0.98;;;20.50;53.10;;;;;;5113295;28;20196;-72
2022/05/29 04:50:16;;;;;;;1.10;0.98;;;20.40;53.70;;;;;;5095905;28;20555;-71
2022/05/29 04:52:42;;;;;;;1.30;1.20;;;20.40;53.10;;;;;;5096417;28;20313;-72
2022/05/29 04:55:08;;;;;;;1.33;1.23;;;20.40;53.10;;;;;;5112795;28;20270;-71
2022/05/29 04:57:34;;;;;;;1.20;1.10;;;20.40;53.10;;;;;;5095955;28;20698;-72
2022/05/29 05:00:00;;;;;;;0.90;0.90;;;20.40;53.10;;;;;;5096544;28;20314;-71
2022/05/29 05:02:26;;;;;;;1.30;1.20;;;20.40;53.10;;;;;;5096977;28;20227;-71
2022/05/29 05:04:53;;;;;;;1.48;1.05;;;20.40;53.10;;;;;;5094964;28;20218;-69
2022/05/29 05:07:19;;;;;;;1.63;1.00;;;20.40;53.10;;;;;;5074996;28;20284;-71
2022/05/29 05:09:46;;;;;;;1.13;1.00;;;20.40;53.20;;;;;;5092017;28;20189;-71
2022/05/29 05:12:12;;;;;;;1.10;1.00;;;20.40;53.10;;;;;;5075606;28;20200;-71
2022/05/29 05:14:38;;;;;;;1.17;1.10;;;20.40;53.10;;;;;;5075885;28;20258;-72
2022/05/29 05:17:04;;;;;;;1.20;1.10;;;20.40;53.10;;;;;;5092020;28;20639;-71
2022/05/29 05:19:30;;;;;;;1.23;1.13;;;20.40;53.20;;;;;;5075433;28;20185;-71
2022/05/29 05:21:59;;;;;;;1.10;1.10;;;20.40;53.20;;;;;;5075609;28;20185;-71
2022/05/29 05:24:25;;;;;;;1.20;1.10;;;20.40;53.20;;;;;;5075634;28;20205;-71
2022/05/29 05:26:51;;;;;;;1.00;1.00;;;20.40;53.20;;;;;;5075337;28;20579;-71
2022/05/29 05:29:17;;;;;;;1.00;1.00;;;20.40;53.20;;;;;;5075499;28;20188;-71
2022/05/29 05:31:43;;;;;;;0.90;0.90;;;20.50;53.30;;;;;;5092339;28;20238;-71
2022/05/29 05:34:09;;;;;;;0.82;0.82;;;20.40;53.20;;;;;;5091778;28;20192;-71
2022/05/29 05:36:35;;;;;;;1.00;1.00;;;20.40;53.20;;;;;;5091861;28;20209;-71
2022/05/29 05:39:00;;;;;;;1.00;1.00;;;20.40;53.30;;;;;;5076563;28;20189;-71
2022/05/29 05:41:26;;;;;;;0.68;0.68;;;20.40;53.30;;;;;;5078645;28;20184;-72
2022/05/29 05:43:52;;;;;;;1.00;0.93;;;20.40;53.40;;;;;;5081899;28;20205;-71
2022/05/29 05:46:18;;;;;;;0.90;0.90;;;20.30;52.90;;;;;;5072540;28;20279;-71
2022/05/29 05:48:45;;;;;;;1.63;1.00;;;20.30;53.40;;;;;;5080947;28;20182;-71
2022/05/29 05:51:13;;;;;;;2.08;1.05;;;20.30;53.40;;;;;;5080693;28;20188;-71
2022/05/29 05:53:41;;;;;;;2.40;1.20;;;20.40;53.50;;;;;;5080593;28;20663;-71
2022/05/29 05:56:14;;;;;;;2.42;1.00;;;20.40;53.40;;;;;;5065702;28;20202;-71
2022/05/29 05:58:42;;;;;;;1.40;1.30;;;20.40;53.30;;;;;;5062929;28;20182;-71
2022/05/29 06:01:14;;;;;;;1.90;1.35;;;20.50;53.40;;;;;;5078038;28;20227;-72
2022/05/29 06:03:40;;;;;;;2.33;1.20;;;20.50;53.40;;;;;;5064930;28;20285;-71
2022/05/29 06:06:06;;;;;;;1.58;1.13;;;20.50;53.40;;;;;;5069913;28;20221;-72
2022/05/29 06:08:33;;;;;;;1.05;1.00;;;20.40;52.60;;;;;;5073409;28;20181;-72
2022/05/29 06:10:59;;;;;;;0.93;0.93;;;20.20;51.40;;;;;;5079674;28;20178;-71
2022/05/29 06:13:25;;;;;;;1.38;1.10;;;20.10;51.40;;;;;;5060620;28;20243;-71
2022/05/29 06:15:51;;;;;;;1.73;1.40;;;20.10;52.00;;;;;;5065465;28;20201;-72
2022/05/29 06:18:18;;;;;;;1.45;1.10;;;20.20;53.00;;;;;;5064176;28;20216;-72
2022/05/29 06:20:46;;;;;;;2.28;1.27;;;20.30;53.20;;;;;;5094596;28;20180;-71
2022/05/29 06:23:12;;;;;;;2.90;1.25;;;20.30;53.00;;;;;;5060198;28;20189;-71
2022/05/29 06:25:40;;;;;;;4.35;1.30;;;20.40;53.00;;;;;;5061120;28;20221;-71
2022/05/29 06:28:08;;;;;;;3.65;1.30;;;20.50;53.00;;;;;;5082183;28;20182;-71
2022/05/29 06:30:34;;;;;;;4.25;1.20;;;20.40;53.00;;;;;;5078442;28;20197;-71
2022/05/29 06:33:01;;;;;;;3.83;1.40;;;20.40;53.00;;;;;;5074887;28;20185;-71
2022/05/29 06:35:28;;;;;;;6.28;1.58;;;20.50;53.00;;;;;;5078863;28;20671;-71
2022/05/29 06:37:53;;;;;;;2.53;1.27;;;20.50;53.00;;;;;;5078986;28;20229;-71
2022/05/29 06:40:19;;;;;;;2.67;1.40;;;20.50;53.00;;;;;;5079082;28;20272;-71
2022/05/29 06:42:45;;;;;;;2.45;1.10;;;20.50;53.00;;;;;;5086041;28;20671;-71
2022/05/29 06:45:12;;;;;;;2.28;1.00;;;20.50;53.10;;;;;;5059020;28;20300;-71
2022/05/29 06:47:39;;;;;;;3.25;1.15;;;20.50;53.10;;;;;;5077840;28;20236;-71
2022/05/29 06:50:07;;;;;;;3.50;1.23;;;20.50;53.10;;;;;;5062565;28;20174;-71
2022/05/29 06:52:33;;;;;;;2.42;1.27;;;20.50;53.20;;;;;;5062963;28;20174;-70
2022/05/29 06:55:02;;;;;;;4.57;1.45;;;20.50;53.20;;;;;;5076169;28;20204;-71
2022/05/29 06:57:40;;;;;;;2.72;1.52;;;20.50;53.30;;;;;;5059065;28;20205;-71
2022/05/29 07:08:33;;;;;;;7.32;1.55;;;20.60;53.50;;;;;;5083866;28;20176;-71
2022/05/29 07:11:10;;;;;;;4.63;1.30;;;20.60;53.50;;;;;;5078371;28;20641;-71
2022/05/29 07:13:37;;;;;;;3.20;1.52;;;20.60;53.60;;;;;;5063912;28;20200;-71
2022/05/29 07:16:04;;;;;;;4.75;1.58;;;20.60;53.60;;;;;;5070254;28;20212;-71
2022/05/29 07:18:30;;;;;;;3.72;1.52;;;20.60;53.50;;;;;;5080074;28;20209;-71
2022/05/29 07:21:03;;;;;;;5.07;1.33;;;20.60;53.50;;;;;;5073319;28;20209;-70
2022/05/29 07:23:30;;;;;;;5.10;1.55;;;20.60;53.50;;;;;;5076872;28;20181;-71
2022/05/29 07:25:57;;;;;;;4.22;1.17;;;20.60;53.40;;;;;;5076658;28;20201;-71
2022/05/29 07:28:24;;;;;;;4.35;1.50;;;20.60;53.50;;;;;;5060754;28;20182;-72
2022/05/29 07:30:52;;;;;;;4.47;1.33;;;20.60;52.50;;;;;;5076464;28;20186;-71
2022/05/29 07:33:18;;;;;;;4.38;1.50;;;20.50;51.70;;;;;;5060420;28;20214;-71
2022/05/29 07:35:44;;;;;;;3.40;1.33;;;20.40;50.70;;;;;;5060134;28;20181;-71
2022/05/29 07:38:11;;;;;;;3.35;1.63;;;20.30;49.60;;;;;;5060540;28;20208;-71
2022/05/29 07:40:37;;;;;;;4.72;1.70;;;20.20;49.30;;;;;;5067996;28;20189;-71
2022/05/29 07:45:57;;;;;;;3.05;1.30;;;20.20;49.30;;;;;;5096841;28;20299;-71
2022/05/29 07:48:27;;;;;;;3.55;1.58;;;20.10;48.70;;;;;;5081741;28;20169;-71
2022/05/29 07:50:54;;;;;;;4.20;1.30;;;20.10;48.70;;;;;;5081088;28;20183;-71
2022/05/29 07:53:21;;;;;;;1.90;1.40;;;20.10;49.00;;;;;;5081166;28;20188;-70
2022/05/29 07:55:47;;;;;;;4.05;1.35;;;20.20;48.90;;;;;;5078139;28;20193;-71
2022/05/29 07:58:14;;;;;;;2.70;1.23;;;20.20;49.00;;;;;;5076373;28;20267;-71
2022/05/29 08:00:41;;;;;;;2.72;1.30;;;20.30;49.40;;;;;;5076502;28;20192;-71
2022/05/29 08:03:08;;;;;;;3.70;1.45;;;20.30;49.30;;;;;;5076742;28;20216;-71
2022/05/29 08:05:37;;;;;;;3.38;1.30;;;20.30;49.70;;;;;;5076107;28;20216;-71
2022/05/29 08:08:08;;;;;;;3.88;1.48;;;20.40;49.80;;;;;;5094093;28;20203;-72
2022/05/29 08:10:37;;;;;;;4.10;1.20;;;20.40;49.80;;;;;;5061956;28;20193;-71
2022/05/29 08:13:04;;;;;;;2.83;1.27;;;20.40;49.80;;;;;;5087039;28;20196;-71
2022/05/29 08:15:30;;;;;;;3.00;1.20;;;20.40;49.60;;;;;;5075958;28;20215;-70
2022/05/29 08:17:56;;;;;;;3.72;1.10;;;20.40;49.70;;;;;;5076635;28;20245;-71
2022/05/29 08:20:23;;;;;;;3.50;1.00;;;20.40;49.30;;;;;;5076071;28;20189;-71
2022/05/29 08:22:49;;;;;;;2.60;1.13;;;20.40;49.30;;;;;;5076023;28;20188;-71
2022/05/29 08:30:51;;;;;;;1.25;1.10;;;20.50;50.40;;;;;;5092852;28;20173;-71
2022/05/29 08:33:25;;;;;;;3.30;0.98;;;20.50;49.80;;;;;;5075573;28;20185;-71
2022/05/29 08:35:56;;;;;;;2.92;1.00;;;20.50;50.30;;;;;;5075023;28;20208;-72
2022/05/29 08:38:22;;;;;;;2.00;1.10;;;20.50;50.40;;;;;;5075909;28;20177;-70
2022/05/29 08:40:57;;;;;;;2.03;1.02;;;20.50;50.50;;;;;;5076189;28;20192;-71
2022/05/29 08:43:40;;;;;;;1.73;1.10;;;20.50;49.60;;;;;;5076275;28;20249;-71
2022/05/29 08:46:13;;;;;;;1.52;1.00;;;20.40;49.20;;;;;;5076757;28;20281;-71
2022/05/29 08:48:39;;;;;;;1.95;0.68;;;20.40;49.10;;;;;;5076467;28;20232;-71
2022/05/29 08:51:32;;;;;;;2.00;0.88;;;20.30;49.20;;;;;;5092581;28;20619;-71
2022/05/29 08:54:31;;;;;;;2.60;1.33;;;20.30;49.20;;;;;;5075862;28;20185;-71
2022/05/29 08:57:42;;;;;;;1.65;1.05;;;20.40;50.60;;;;;;5104276;28;20200;-71
2022/05/29 09:00:22;;;;;;;2.05;0.95;;;20.50;50.70;;;;;;5047710;28;20205;-71
2022/05/29 09:03:14;;;;;;;1.67;0.93;;;20.60;50.80;;;;;;5055332;28;20247;-71
2022/05/29 09:06:03;;;;;;;2.40;0.93;;;20.70;50.90;;;;;;5054920;28;20194;-71
2022/05/29 09:09:25;;;;;;;2.47;1.00;;;20.70;50.90;;;;;;5055084;28;20185;-71
2022/05/29 09:12:04;;;;;;;1.98;1.05;;;20.70;50.80;;;;;;5055062;28;20185;-71
2022/05/29 09:14:39;;;;;;;1.58;1.00;;;20.80;50.80;;;;;;5055313;28;20250;-71
2022/05/29 09:17:47;;;;;;;2.30;1.10;;;20.80;50.70;;;;;;5056430;28;20213;-71
2022/05/29 09:21:01;;;;;;;3.97;1.10;;;20.80;50.70;;;;;;5058426;28;20189;-71
2022/05/29 09:23:43;;;;;;;1.30;0.70;;;20.80;50.70;;;;;;5058306;28;20190;-71
2022/05/29 09:26:17;;;;;;;2.22;0.90;;;20.90;50.80;;;;;;5058423;28;20210;-71
2022/05/29 09:28:43;;;;;;;0.90;0.90;;;20.90;50.80;;;;;;5058231;28;20219;-71
2022/05/29 09:31:17;;;;;;;2.70;0.90;;;20.90;50.80;;;;;;5058651;28;20182;-71
2022/05/29 09:33:43;;;;;;;1.55;0.90;;;20.90;50.90;;;;;;5058926;28;20181;-71
2022/05/29 09:36:44;;;;;;;1.25;1.00;;;20.90;51.00;;;;;;5058337;28;20201;-71
2022/05/29 09:39:41;;;;;;;3.00;0.77;;;20.90;51.00;;;;;;5058471;28;20182;-71
2022/05/29 09:42:17;;;;;;;1.85;1.15;;;20.90;51.10;;;;;;5075617;28;20196;-71
2022/05/29 09:45:14;;;;;;;1.48;0.80;;;20.90;51.20;;;;;;5058523;28;20217;-71
2022/05/29 09:50:45;;;;;;;1.08;0.70;;;20.90;51.40;;;;;;5074584;28;20188;-72
2022/05/29 09:53:19;;;;;;;0.77;0.70;;;20.90;51.50;;;;;;5061133;28;20207;-71
2022/05/29 09:55:58;;;;;;;1.33;0.90;;;20.90;51.50;;;;;;5061368;28;20177;-71
2022/05/29 09:58:38;;;;;;;2.55;1.02;;;21.00;51.60;;;;;;5060735;28;20220;-70
2022/05/29 10:01:08;;;;;;;3.40;1.33;;;20.90;51.50;;;;;;5060433;28;20193;-71
2022/05/29 10:04:00;;;;;;;2.47;1.20;;;21.00;51.60;;;;;;5060270;28;20204;-72
2022/05/29 10:06:42;;;;;;;3.28;1.20;;;20.90;51.50;;;;;;5060726;28;20212;-72
2022/05/29 10:09:30;;;;;;;4.53;1.33;;;21.00;51.60;;;;;;5061550;28;20193;-69
2022/05/29 10:12:17;;;;;;;3.15;1.10;;;21.00;51.80;;;;;;5078315;28;20185;-72
2022/05/29 10:14:44;;;;;;;4.57;1.23;;;21.00;52.10;;;;;;5061400;28;20208;-72
2022/05/29 10:17:33;;;;;;;5.22;1.35;;;21.00;51.90;;;;;;5079652;28;20209;-71
2022/05/29 10:19:59;;;;;;;5.57;1.20;;;21.00;52.10;;;;;;5080033;28;20184;-72
2022/05/29 10:22:38;;;;;;;9.27;1.30;;;21.00;52.10;;;;;;5096151;28;20187;-71
2022/05/29 10:25:19;;;;;;;6.38;1.10;;;21.00;52.10;;;;;;5096473;28;20262;-71
2022/05/29 10:27:50;;;;;;;2.97;1.20;;;21.00;52.10;;;;;;5096119;28;20287;-71
2022/05/29 10:30:47;;;;;;;4.97;1.20;;;21.00;52.10;;;;;;5079229;28;20184;-72
2022/05/29 10:33:24;;;;;;;4.93;1.20;;;21.00;52.10;;;;;;5062356;28;20177;-71
2022/05/29 10:35:58;;;;;;;6.05;1.40;;;21.00;52.10;;;;;;5078613;28;20211;-71
2022/05/29 10:38:29;;;;;;;4.13;1.25;;;21.00;52.10;;;;;;5078714;28;20186;-72
2022/05/29 10:41:00;;;;;;;3.63;1.20;;;21.00;52.10;;;;;;5078400;28;20185;-72
2022/05/29 10:43:47;;;;;;;2.00;1.08;;;21.00;52.10;;;;;;5078646;28;20180;-72
2022/05/29 10:46:26;;;;;;;3.30;1.20;;;21.00;52.10;;;;;;5079021;28;20221;-71
2022/05/29 10:49:31;;;;;;;5.38;1.30;;;21.00;52.20;;;;;;5079291;28;20280;-72
2022/05/29 10:52:05;;;;;;;4.80;1.50;;;21.00;52.40;;;;;;5054918;28;20622;-72
2022/05/29 10:55:06;;;;;;;7.10;1.23;;;21.00;52.40;;;;;;5096093;28;20188;-72
2022/05/29 10:58:04;;;;;;;3.50;1.10;;;21.00;52.50;;;;;;5078966;28;20218;-72
2022/05/29 11:00:45;;;;;;;4.57;1.10;;;21.00;52.60;;;;;;5095883;28;20201;-72
2022/05/29 11:04:02;;;;;;;5.80;1.27;;;21.00;52.70;;;;;;5095808;28;20192;-71
2022/05/29 11:06:59;;;;;;;2.78;0.98;;;21.00;52.70;;;;;;5034995;28;20220;-71
2022/05/29 11:09:56;;;;;;;1.52;1.02;;;21.00;52.70;;;;;;5079721;28;20177;-72
2022/05/29 11:12:43;;;;;;;2.72;1.10;;;21.00;52.70;;;;;;5090776;28;20224;-72
2022/05/29 11:15:24;;;;;;;3.83;0.98;;;21.00;52.70;;;;;;5096140;28;20173;-72
2022/05/29 11:18:32;;;;;;;3.85;1.30;;;21.00;52.70;;;;;;5095819;28;20211;-72
2022/05/29 11:21:43;;;;;;;2.80;1.20;;;21.00;52.70;;;;;;5080222;28;20234;-72
2022/05/29 11:24:48;;;;;;;2.38;1.10;;;21.00;52.70;;;;;;5078782;28;20303;-71
2022/05/29 11:27:52;;;;;;;2.50;1.10;;;21.00;52.70;;;;;;5094748;28;20205;-71
2022/05/29 11:30:44;;;;;;;1.55;1.05;;;21.00;52.70;;;;;;5078293;28;20191;-72
2022/05/29 11:33:38;;;;;;;1.92;0.90;;;21.00;52.70;;;;;;5077864;28;20177;-72
2022/05/29 11:36:41;;;;;;;2.47;1.05;;;21.00;52.70;;;;;;5095079;28;20204;-72
2022/05/29 11:39:29;;;;;;;1.95;0.88;;;21.00;52.70;;;;;;5065618;28;20196;-72
2022/05/29 11:42:02;;;;;;;3.35;1.02;;;21.00;52.40;;;;;;5077386;28;20625;-72
2022/05/29 11:45:22;;;;;;;2.35;0.90;;;21.10;52.60;;;;;;5077530;28;20212;-72
2022/05/29 11:51:08;;;;;;;2.33;0.90;;;21.00;52.60;;;;;;5094326;28;20189;-73
2022/05/29 11:54:25;;;;;;;2.30;0.93;;;21.10;52.60;;;;;;5077669;28;20209;-72
2022/05/29 11:57:14;;;;;;;4.85;1.10;;;21.10;52.70;;;;;;5067707;28;20217;-72
2022/05/29 12:00:21;;;;;;;2.35;1.00;;;21.00;52.50;;;;;;5077103;28;20262;-71
2022/05/29 12:03:04;;;;;;;3.97;1.10;;;21.00;52.60;;;;;;5093588;28;20648;-71
2022/05/29 12:05:49;;;;;;;2.58;1.10;;;21.10;52.60;;;;;;5093298;28;20227;-71
2022/05/29 12:08:47;;;;;;;1.90;1.05;;;21.10;52.50;;;;;;5076673;28;20185;-72
2022/05/29 12:11:44;;;;;;;0.90;0.60;;;21.10;52.60;;;;;;5077102;28;20168;-72
2022/05/29 12:14:36;;;;;;;1.13;0.80;;;21.10;52.60;;;;;;5093635;28;20184;-71
2022/05/29 12:17:23;;;;;;;1.02;0.75;;;21.10;52.80;;;;;;5072072;28;20311;-71
2022/05/29 12:20:08;;;;;;;1.05;0.80;;;21.00;52.70;;;;;;5076926;28;20251;-72
2022/05/29 12:22:52;;;;;;;1.05;0.70;;;21.10;52.80;;;;;;5077074;28;20189;-72
2022/05/29 12:25:39;;;;;;;2.45;0.90;;;21.10;52.80;;;;;;5085638;28;20202;-72
2022/05/29 12:28:13;;;;;;;1.85;0.70;;;21.00;52.70;;;;;;5073865;28;20208;-71
2022/05/29 12:30:48;;;;;;;1.08;0.82;;;21.10;52.80;;;;;;5073712;28;20166;-72
2022/05/29 12:33:18;;;;;;;1.23;0.80;;;21.10;52.80;;;;;;5056777;28;20166;-72
2022/05/29 12:36:11;;;;;;;2.65;0.90;;;21.10;52.90;;;;;;5073335;28;20224;-72
2022/05/29 12:39:17;;;;;;;1.63;0.75;;;21.10;53.00;;;;;;5056666;28;20289;-71
2022/05/29 12:41:58;;;;;;;1.05;0.93;;;21.10;53.00;;;;;;5073480;28;20242;-72
2022/05/29 12:44:48;;;;;;;1.90;1.00;;;21.10;52.90;;;;;;5056352;28;20201;-72
2022/05/29 12:47:45;;;;;;;1.23;0.90;;;21.10;53.00;;;;;;5073089;28;20202;-71
2022/05/29 12:50:26;;;;;;;0.80;0.80;;;21.00;53.00;;;;;;5056379;28;20181;-71
2022/05/29 12:53:52;;;;;;;1.00;0.80;;;21.00;53.00;;;;;;5056396;28;20205;-72
2022/05/29 12:57:24;;;;;;;1.17;0.80;;;21.10;53.10;;;;;;5012708;28;20228;-71
2022/05/29 13:00:01;;;;;;;1.05;0.90;;;21.10;53.20;;;;;;5073110;28;20196;-72
2022/05/29 13:03:13;;;;;;;1.00;0.80;;;21.10;53.10;;;;;;5073585;28;20188;-72
2022/05/29 13:06:16;;;;;;;2.05;0.77;;;21.10;53.30;;;;;;5056039;28;20213;-71
2022/05/29 13:09:21;;;;;;;1.15;0.65;;;21.10;53.30;;;;;;5056255;28;20194;-71
2022/05/29 13:11:54;;;;;;;1.02;0.70;;;21.10;53.30;;;;;;5056239;28;20189;-72
2022/05/29 13:14:22;;;;;;;1.70;0.88;;;21.10;53.40;;;;;;5056016;28;20229;-71
2022/05/29 13:17:10;;;;;;;0.63;0.60;;;21.10;53.50;;;;;;5056048;28;20208;-72
2022/05/29 13:19:57;;;;;;;0.90;0.80;;;21.00;53.30;;;;;;5055863;28;20265;-72
2022/05/29 13:22:50;;;;;;;1.63;0.70;;;21.10;53.40;;;;;;5072640;28;20190;-71
2022/05/29 13:25:24;;;;;;;1.92;1.00;;;21.10;53.40;;;;;;5057183;28;20325;-72
2022/05/29 13:27:51;;;;;;;0.88;0.80;;;21.10;53.40;;;;;;5058523;28;20201;-71
2022/05/29 13:30:36;;;;;;;1.50;0.90;;;21.00;53.50;;;;;;5074816;28;20182;-71
2022/05/29 13:33:24;;;;;;;0.93;0.70;;;21.00;53.20;;;;;;5059947;28;20189;-71
2022/05/29 13:35:51;;;;;;;1.42;0.70;;;20.90;53.20;;;;;;5076386;28;20249;-70
2022/05/29 13:38:49;;;;;;;1.00;0.90;;;20.80;51.30;;;;;;5059818;28;20178;-70
2022/05/29 13:41:31;;;;;;;5.38;0.90;;;20.60;50.60;;;;;;5017687;28;20197;-70
2022/05/29 13:44:39;;;;;;;1.70;0.52;;;20.60;50.30;;;;;;5060454;28;20173;-70
2022/05/29 13:47:26;;;;;;;1.58;0.70;;;20.60;50.20;;;;;;5074864;28;20232;-71
2022/05/29 13:50:10;;;;;;;2.30;1.20;;;20.60;50.20;;;;;;5060867;28;20181;-70
2022/05/29 13:52:42;;;;;;;0.82;0.63;;;20.70;50.10;;;;;;5060588;28;20223;-70
2022/05/29 13:55:50;;;;;;;0.90;0.63;;;20.70;49.90;;;;;;5060826;28;20264;-70
2022/05/29 14:04:47;;;;;;;2.65;0.98;;;20.70;49.60;;;;;;5081572;28;20315;-70
2022/05/29 14:07:33;;;;;;;1.63;0.50;;;20.60;49.20;;;;;;5081287;28;20206;-70
2022/05/29 14:10:20;;;;;;;1.45;0.60;;;20.60;49.20;;;;;;5094482;28;20191;-70
2022/05/29 14:13:05;;;;;;;1.27;0.70;;;20.60;49.10;;;;;;5104891;28;20180;-70
2022/05/29 14:15:39;;;;;;;1.92;0.65;;;20.50;49.10;;;;;;5104042;28;20201;-70
2022/05/29 14:18:13;;;;;;;2.65;0.82;;;20.50;49.60;;;;;;5098250;28;20189;-71
2022/05/29 14:21:06;;;;;;;0.70;0.70;;;20.50;49.80;;;;;;5084501;28;20203;-70